sensor_id;sensor_type;location;lat;lon;timestamp;P1;durP1;ratioP1;P2;durP2;ratioP2
57551;SDS011;43379;48.160;14.036;2022-10-01T00:01:00;14.20;;;12.93;;
57551;SDS011;43379;48.160;14.036;2022-10-01T00:03:27;13.53;;;11.73;;
57551;SDS011;43379;48.160;14.036;2022-10-01T00:05:59;14.10;;;12.90;;
57551;SDS011;43379;48.160;14.036;2022-10-01T00:08:30;12.97;;;11.40;;
57551;SDS011;43379;48.160;14.036;2022-10-01T00:10:57;12.77;;;11.57;;
57551;SDS011;43379;48.160;14.036;2022-10-01T00:13:24;13.70;;;12.60;;
57551;SDS011;43379;48.160;14.036;2022-10-01T00:15:50;12.50;;;11.30;;
57551;SDS011;43379;48.160;14.036;2022-10-01T00:18:17;14.40;;;12.93;;
57551;SDS011;43379;48.160;14.036;2022-10-01T00:20:43;13.80;;;12.40;;
57551;SDS011;43379;48.160;14.036;2022-10-01T00:23:09;13.37;;;12.17;;
57551;SDS011;43379;48.160;14.036;2022-10-01T00:25:35;12.70;;;11.60;;
57551;SDS011;43379;48.160;14.036;2022-10-01T00:28:01;13.50;;;12.40;;
57551;SDS011;43379;48.160;14.036;2022-10-01T00:30:27;12.70;;;11.63;;
57551;SDS011;43379;48.160;14.036;2022-10-01T00:32:53;11.83;;;10.83;;
57551;SDS011;43379;48.160;14.036;2022-10-01T00:35:19;13.23;;;12.13;;
57551;SDS011;43379;48.160;14.036;2022-10-01T00:37:46;12.40;;;11.37;;
57551;SDS011;43379;48.160;14.036;2022-10-01T00:40:15;12.63;;;11.47;;
57551;SDS011;43379;48.160;14.036;2022-10-01T00:42:42;11.87;;;10.93;;
57551;SDS011;43379;48.160;14.036;2022-10-01T00:45:09;12.33;;;11.37;;
57551;SDS011;43379;48.160;14.036;2022-10-01T00:47:40;14.10;;;12.90;;
57551;SDS011;43379;48.160;14.036;2022-10-01T00:50:20;12.10;;;10.97;;
57551;SDS011;43379;48.160;14.036;2022-10-01T00:52:51;12.43;;;11.33;;
57551;SDS011;43379;48.160;14.036;2022-10-01T00:57:52;12.43;;;11.17;;
57551;SDS011;43379;48.160;14.036;2022-10-01T01:00:19;12.90;;;11.60;;
57551;SDS011;43379;48.160;14.036;2022-10-01T01:02:45;13.43;;;11.70;;
57551;SDS011;43379;48.160;14.036;2022-10-01T01:05:11;11.40;;;10.40;;
57551;SDS011;43379;48.160;14.036;2022-10-01T01:07:37;10.70;;;9.90;;
57551;SDS011;43379;48.160;14.036;2022-10-01T01:10:09;12.00;;;11.10;;
57551;SDS011;43379;48.160;14.036;2022-10-01T01:15:46;11.70;;;10.70;;
57551;SDS011;43379;48.160;14.036;2022-10-01T01:21:04;12.00;;;11.10;;
57551;SDS011;43379;48.160;14.036;2022-10-01T01:26:24;11.07;;;10.17;;
57551;SDS011;43379;48.160;14.036;2022-10-01T01:29:06;10.57;;;9.67;;
57551;SDS011;43379;48.160;14.036;2022-10-01T01:31:56;11.13;;;10.33;;
57551;SDS011;43379;48.160;14.036;2022-10-01T01:34:28;10.70;;;9.80;;
57551;SDS011;43379;48.160;14.036;2022-10-01T01:37:07;11.00;;;9.93;;
57551;SDS011;43379;48.160;14.036;2022-10-01T01:39:36;10.60;;;9.70;;
57551;SDS011;43379;48.160;14.036;2022-10-01T01:42:08;10.60;;;9.73;;
57551;SDS011;43379;48.160;14.036;2022-10-01T01:44:38;10.20;;;9.17;;
57551;SDS011;43379;48.160;14.036;2022-10-01T01:47:08;11.07;;;10.07;;
57551;SDS011;43379;48.160;14.036;2022-10-01T01:49:35;10.67;;;9.13;;
57551;SDS011;43379;48.160;14.036;2022-10-01T01:52:12;9.40;;;8.60;;
57551;SDS011;43379;48.160;14.036;2022-10-01T01:54:40;10.80;;;10.00;;
57551;SDS011;43379;48.160;14.036;2022-10-01T01:57:06;11.20;;;10.20;;
57551;SDS011;43379;48.160;14.036;2022-10-01T01:59:33;9.87;;;9.17;;
57551;SDS011;43379;48.160;14.036;2022-10-01T02:02:00;10.87;;;9.77;;
57551;SDS011;43379;48.160;14.036;2022-10-01T02:04:30;10.80;;;9.73;;
57551;SDS011;43379;48.160;14.036;2022-10-01T02:10:42;9.87;;;9.03;;
57551;SDS011;43379;48.160;14.036;2022-10-01T02:13:01;9.07;;;8.00;;
57551;SDS011;43379;48.160;14.036;2022-10-01T02:15:56;10.30;;;9.40;;
57551;SDS011;43379;48.160;14.036;2022-10-01T02:18:33;9.20;;;8.50;;
57551;SDS011;43379;48.160;14.036;2022-10-01T02:21:22;11.37;;;9.60;;
57551;SDS011;43379;48.160;14.036;2022-10-01T02:24:26;10.80;;;9.90;;
57551;SDS011;43379;48.160;14.036;2022-10-01T02:27:12;10.83;;;9.70;;
57551;SDS011;43379;48.160;14.036;2022-10-01T02:29:44;11.67;;;10.67;;
57551;SDS011;43379;48.160;14.036;2022-10-01T02:34:40;12.70;;;11.30;;
57551;SDS011;43379;48.160;14.036;2022-10-01T02:37:08;11.60;;;10.40;;
57551;SDS011;43379;48.160;14.036;2022-10-01T02:39:35;11.33;;;10.40;;
57551;SDS011;43379;48.160;14.036;2022-10-01T02:42:05;10.43;;;9.53;;
57551;SDS011;43379;48.160;14.036;2022-10-01T02:44:36;12.63;;;11.37;;
57551;SDS011;43379;48.160;14.036;2022-10-01T02:49:47;11.57;;;10.53;;
57551;SDS011;43379;48.160;14.036;2022-10-01T02:52:22;11.23;;;9.80;;
57551;SDS011;43379;48.160;14.036;2022-10-01T02:55:22;11.97;;;10.93;;
57551;SDS011;43379;48.160;14.036;2022-10-01T02:57:50;12.67;;;11.43;;
57551;SDS011;43379;48.160;14.036;2022-10-01T03:00:17;12.43;;;11.30;;
57551;SDS011;43379;48.160;14.036;2022-10-01T03:02:45;10.70;;;9.70;;
57551;SDS011;43379;48.160;14.036;2022-10-01T03:05:11;12.33;;;11.17;;
57551;SDS011;43379;48.160;14.036;2022-10-01T03:07:38;12.63;;;11.50;;
57551;SDS011;43379;48.160;14.036;2022-10-01T03:10:05;12.00;;;10.90;;
57551;SDS011;43379;48.160;14.036;2022-10-01T03:12:32;10.47;;;9.47;;
57551;SDS011;43379;48.160;14.036;2022-10-01T03:14:59;11.03;;;10.13;;
57551;SDS011;43379;48.160;14.036;2022-10-01T03:17:25;9.67;;;8.90;;
57551;SDS011;43379;48.160;14.036;2022-10-01T03:19:51;12.13;;;10.17;;
57551;SDS011;43379;48.160;14.036;2022-10-01T03:22:17;10.90;;;9.93;;
57551;SDS011;43379;48.160;14.036;2022-10-01T03:24:47;11.43;;;10.33;;
57551;SDS011;43379;48.160;14.036;2022-10-01T03:27:16;10.77;;;9.87;;
57551;SDS011;43379;48.160;14.036;2022-10-01T03:29:42;10.60;;;9.73;;
57551;SDS011;43379;48.160;14.036;2022-10-01T03:32:08;10.70;;;9.60;;
57551;SDS011;43379;48.160;14.036;2022-10-01T03:34:34;10.87;;;9.97;;
57551;SDS011;43379;48.160;14.036;2022-10-01T03:37:00;11.03;;;10.10;;
57551;SDS011;43379;48.160;14.036;2022-10-01T03:39:26;12.43;;;9.03;;
57551;SDS011;43379;48.160;14.036;2022-10-01T03:41:51;10.90;;;9.90;;
57551;SDS011;43379;48.160;14.036;2022-10-01T03:44:17;9.70;;;8.90;;
57551;SDS011;43379;48.160;14.036;2022-10-01T03:46:43;10.50;;;9.60;;
57551;SDS011;43379;48.160;14.036;2022-10-01T03:49:09;10.40;;;9.57;;
57551;SDS011;43379;48.160;14.036;2022-10-01T03:51:35;10.90;;;10.00;;
57551;SDS011;43379;48.160;14.036;2022-10-01T03:54:01;10.43;;;9.63;;
57551;SDS011;43379;48.160;14.036;2022-10-01T03:56:28;11.77;;;10.77;;
57551;SDS011;43379;48.160;14.036;2022-10-01T03:58:54;10.10;;;9.30;;
57551;SDS011;43379;48.160;14.036;2022-10-01T04:01:20;11.17;;;10.17;;
57551;SDS011;43379;48.160;14.036;2022-10-01T04:03:45;10.63;;;9.63;;
57551;SDS011;43379;48.160;14.036;2022-10-01T04:06:11;11.70;;;10.40;;
57551;SDS011;43379;48.160;14.036;2022-10-01T04:08:37;11.37;;;10.37;;
57551;SDS011;43379;48.160;14.036;2022-10-01T04:11:04;12.20;;;11.00;;
57551;SDS011;43379;48.160;14.036;2022-10-01T04:13:31;10.20;;;9.20;;
57551;SDS011;43379;48.160;14.036;2022-10-01T04:15:57;11.17;;;9.90;;
57551;SDS011;43379;48.160;14.036;2022-10-01T04:18:23;11.80;;;10.43;;
57551;SDS011;43379;48.160;14.036;2022-10-01T04:20:48;10.63;;;9.73;;
57551;SDS011;43379;48.160;14.036;2022-10-01T04:23:14;10.97;;;9.97;;
57551;SDS011;43379;48.160;14.036;2022-10-01T04:25:40;10.73;;;9.77;;
57551;SDS011;43379;48.160;14.036;2022-10-01T04:28:06;10.30;;;9.50;;
57551;SDS011;43379;48.160;14.036;2022-10-01T04:30:35;11.37;;;10.37;;
57551;SDS011;43379;48.160;14.036;2022-10-01T04:33:03;11.13;;;10.23;;
57551;SDS011;43379;48.160;14.036;2022-10-01T04:35:29;10.67;;;9.67;;
57551;SDS011;43379;48.160;14.036;2022-10-01T04:38:05;11.20;;;10.10;;
57551;SDS011;43379;48.160;14.036;2022-10-01T04:40:36;11.47;;;10.40;;
57551;SDS011;43379;48.160;14.036;2022-10-01T04:43:02;10.80;;;9.70;;
57551;SDS011;43379;48.160;14.036;2022-10-01T04:45:32;12.27;;;10.87;;
57551;SDS011;43379;48.160;14.036;2022-10-01T04:47:58;12.17;;;11.10;;
57551;SDS011;43379;48.160;14.036;2022-10-01T04:50:24;14.50;;;13.20;;
57551;SDS011;43379;48.160;14.036;2022-10-01T04:52:51;14.37;;;13.10;;
57551;SDS011;43379;48.160;14.036;2022-10-01T04:55:18;13.43;;;12.13;;
57551;SDS011;43379;48.160;14.036;2022-10-01T04:57:45;13.23;;;12.13;;
57551;SDS011;43379;48.160;14.036;2022-10-01T05:00:13;13.20;;;11.87;;
57551;SDS011;43379;48.160;14.036;2022-10-01T05:02:44;12.53;;;11.43;;
57551;SDS011;43379;48.160;14.036;2022-10-01T05:05:11;11.70;;;10.67;;
57551;SDS011;43379;48.160;14.036;2022-10-01T05:07:37;12.10;;;11.13;;
57551;SDS011;43379;48.160;14.036;2022-10-01T05:10:04;12.03;;;11.00;;
57551;SDS011;43379;48.160;14.036;2022-10-01T05:12:31;13.20;;;12.07;;
57551;SDS011;43379;48.160;14.036;2022-10-01T05:14:57;12.27;;;11.27;;
57551;SDS011;43379;48.160;14.036;2022-10-01T05:17:23;12.40;;;11.40;;
57551;SDS011;43379;48.160;14.036;2022-10-01T05:19:48;13.03;;;12.07;;
57551;SDS011;43379;48.160;14.036;2022-10-01T05:22:15;12.13;;;11.03;;
57551;SDS011;43379;48.160;14.036;2022-10-01T05:24:41;11.40;;;10.47;;
57551;SDS011;43379;48.160;14.036;2022-10-01T05:27:09;12.07;;;11.07;;
57551;SDS011;43379;48.160;14.036;2022-10-01T05:29:37;12.40;;;11.07;;
57551;SDS011;43379;48.160;14.036;2022-10-01T05:32:04;12.60;;;11.50;;
57551;SDS011;43379;48.160;14.036;2022-10-01T05:34:30;14.67;;;13.47;;
57551;SDS011;43379;48.160;14.036;2022-10-01T05:36:55;24.03;;;21.83;;
57551;SDS011;43379;48.160;14.036;2022-10-01T05:39:21;27.70;;;24.80;;
57551;SDS011;43379;48.160;14.036;2022-10-01T05:41:46;24.80;;;22.30;;
57551;SDS011;43379;48.160;14.036;2022-10-01T05:44:12;24.87;;;22.47;;
57551;SDS011;43379;48.160;14.036;2022-10-01T05:46:38;29.53;;;26.43;;
57551;SDS011;43379;48.160;14.036;2022-10-01T05:49:04;17.73;;;15.97;;
57551;SDS011;43379;48.160;14.036;2022-10-01T05:51:31;17.80;;;16.20;;
57551;SDS011;43379;48.160;14.036;2022-10-01T05:53:56;18.70;;;17.20;;
57551;SDS011;43379;48.160;14.036;2022-10-01T05:56:26;16.67;;;15.07;;
57551;SDS011;43379;48.160;14.036;2022-10-01T05:58:52;15.07;;;13.87;;
57551;SDS011;43379;48.160;14.036;2022-10-01T06:01:18;12.93;;;11.83;;
57551;SDS011;43379;48.160;14.036;2022-10-01T06:03:43;15.00;;;13.67;;
57551;SDS011;43379;48.160;14.036;2022-10-01T06:06:09;15.50;;;14.10;;
57551;SDS011;43379;48.160;14.036;2022-10-01T06:08:35;16.33;;;14.83;;
57551;SDS011;43379;48.160;14.036;2022-10-01T06:11:03;15.23;;;14.03;;
57551;SDS011;43379;48.160;14.036;2022-10-01T06:13:29;16.30;;;14.60;;
57551;SDS011;43379;48.160;14.036;2022-10-01T06:15:55;16.07;;;14.73;;
57551;SDS011;43379;48.160;14.036;2022-10-01T06:18:21;13.63;;;12.60;;
57551;SDS011;43379;48.160;14.036;2022-10-01T06:20:47;16.40;;;14.80;;
57551;SDS011;43379;48.160;14.036;2022-10-01T06:23:13;15.37;;;14.10;;
57551;SDS011;43379;48.160;14.036;2022-10-01T06:25:39;14.40;;;13.13;;
57551;SDS011;43379;48.160;14.036;2022-10-01T06:28:07;13.57;;;12.37;;
57551;SDS011;43379;48.160;14.036;2022-10-01T06:30:35;14.10;;;13.00;;
57551;SDS011;43379;48.160;14.036;2022-10-01T06:33:03;18.40;;;15.50;;
57551;SDS011;43379;48.160;14.036;2022-10-01T06:35:34;15.60;;;13.33;;
57551;SDS011;43379;48.160;14.036;2022-10-01T06:38:03;14.27;;;13.00;;
57551;SDS011;43379;48.160;14.036;2022-10-01T06:40:30;14.13;;;12.80;;
57551;SDS011;43379;48.160;14.036;2022-10-01T06:42:56;12.37;;;11.30;;
57551;SDS011;43379;48.160;14.036;2022-10-01T06:45:23;13.43;;;12.20;;
57551;SDS011;43379;48.160;14.036;2022-10-01T06:47:53;14.00;;;12.70;;
57551;SDS011;43379;48.160;14.036;2022-10-01T06:50:20;15.20;;;13.50;;
57551;SDS011;43379;48.160;14.036;2022-10-01T06:52:45;15.53;;;14.17;;
57551;SDS011;43379;48.160;14.036;2022-10-01T06:55:17;15.17;;;13.60;;
57551;SDS011;43379;48.160;14.036;2022-10-01T06:57:44;15.80;;;14.20;;
57551;SDS011;43379;48.160;14.036;2022-10-01T07:00:11;14.20;;;12.90;;
57551;SDS011;43379;48.160;14.036;2022-10-01T07:02:38;15.07;;;13.67;;
57551;SDS011;43379;48.160;14.036;2022-10-01T07:05:04;14.13;;;13.03;;
57551;SDS011;43379;48.160;14.036;2022-10-01T07:07:31;14.43;;;13.30;;
57551;SDS011;43379;48.160;14.036;2022-10-01T07:09:59;13.37;;;12.27;;
57551;SDS011;43379;48.160;14.036;2022-10-01T07:12:29;14.83;;;12.70;;
57551;SDS011;43379;48.160;14.036;2022-10-01T07:14:55;14.63;;;13.27;;
57551;SDS011;43379;48.160;14.036;2022-10-01T07:17:21;14.47;;;13.13;;
57551;SDS011;43379;48.160;14.036;2022-10-01T07:19:47;14.70;;;13.30;;
57551;SDS011;43379;48.160;14.036;2022-10-01T07:22:12;15.03;;;13.63;;
57551;SDS011;43379;48.160;14.036;2022-10-01T07:24:38;15.07;;;13.77;;
57551;SDS011;43379;48.160;14.036;2022-10-01T07:27:04;14.97;;;13.57;;
57551;SDS011;43379;48.160;14.036;2022-10-01T07:29:29;13.53;;;12.40;;
57551;SDS011;43379;48.160;14.036;2022-10-01T07:31:56;14.10;;;13.00;;
57551;SDS011;43379;48.160;14.036;2022-10-01T07:34:26;14.30;;;13.07;;
57551;SDS011;43379;48.160;14.036;2022-10-01T07:36:52;14.27;;;12.87;;
57551;SDS011;43379;48.160;14.036;2022-10-01T07:39:20;15.00;;;13.60;;
57551;SDS011;43379;48.160;14.036;2022-10-01T07:41:47;15.30;;;13.97;;
57551;SDS011;43379;48.160;14.036;2022-10-01T07:44:14;14.27;;;13.00;;
57551;SDS011;43379;48.160;14.036;2022-10-01T07:46:40;13.67;;;12.37;;
57551;SDS011;43379;48.160;14.036;2022-10-01T07:49:07;12.13;;;11.23;;
57551;SDS011;43379;48.160;14.036;2022-10-01T07:51:33;11.87;;;10.67;;
57551;SDS011;43379;48.160;14.036;2022-10-01T07:54:00;12.37;;;11.27;;
57551;SDS011;43379;48.160;14.036;2022-10-01T07:56:26;11.67;;;10.67;;
57551;SDS011;43379;48.160;14.036;2022-10-01T07:58:55;10.70;;;9.80;;
57551;SDS011;43379;48.160;14.036;2022-10-01T08:01:22;9.87;;;8.97;;
57551;SDS011;43379;48.160;14.036;2022-10-01T08:03:49;9.20;;;8.50;;
57551;SDS011;43379;48.160;14.036;2022-10-01T08:06:16;10.13;;;9.13;;
57551;SDS011;43379;48.160;14.036;2022-10-01T08:08:42;10.00;;;9.20;;
57551;SDS011;43379;48.160;14.036;2022-10-01T08:11:08;10.20;;;9.33;;
57551;SDS011;43379;48.160;14.036;2022-10-01T08:13:37;9.40;;;8.70;;
57551;SDS011;43379;48.160;14.036;2022-10-01T08:16:04;9.40;;;8.47;;
57551;SDS011;43379;48.160;14.036;2022-10-01T08:18:31;8.47;;;7.80;;
57551;SDS011;43379;48.160;14.036;2022-10-01T08:20:58;8.77;;;7.87;;
57551;SDS011;43379;48.160;14.036;2022-10-01T08:23:26;9.00;;;8.30;;
57551;SDS011;43379;48.160;14.036;2022-10-01T08:25:57;9.83;;;8.93;;
57551;SDS011;43379;48.160;14.036;2022-10-01T08:28:31;8.97;;;8.17;;
57551;SDS011;43379;48.160;14.036;2022-10-01T08:30:57;7.27;;;6.77;;
57551;SDS011;43379;48.160;14.036;2022-10-01T08:33:23;8.77;;;8.03;;
57551;SDS011;43379;48.160;14.036;2022-10-01T08:35:49;9.37;;;8.40;;
57551;SDS011;43379;48.160;14.036;2022-10-01T08:38:14;8.53;;;7.93;;
57551;SDS011;43379;48.160;14.036;2022-10-01T08:40:42;8.00;;;7.30;;
57551;SDS011;43379;48.160;14.036;2022-10-01T08:43:25;8.77;;;8.10;;
57551;SDS011;43379;48.160;14.036;2022-10-01T08:46:03;8.93;;;8.23;;
57551;SDS011;43379;48.160;14.036;2022-10-01T08:51:28;8.17;;;7.53;;
57551;SDS011;43379;48.160;14.036;2022-10-01T08:54:02;8.33;;;7.73;;
57551;SDS011;43379;48.160;14.036;2022-10-01T08:56:57;8.00;;;7.40;;
57551;SDS011;43379;48.160;14.036;2022-10-01T09:01:56;8.47;;;7.50;;
57551;SDS011;43379;48.160;14.036;2022-10-01T09:04:23;7.83;;;7.23;;
57551;SDS011;43379;48.160;14.036;2022-10-01T09:06:51;6.90;;;6.40;;
57551;SDS011;43379;48.160;14.036;2022-10-01T09:09:31;8.00;;;7.40;;
57551;SDS011;43379;48.160;14.036;2022-10-01T09:27:26;8.10;;;7.43;;
57551;SDS011;43379;48.160;14.036;2022-10-01T09:30:00;7.60;;;6.93;;
57551;SDS011;43379;48.160;14.036;2022-10-01T09:38:35;8.53;;;7.93;;
57551;SDS011;43379;48.160;14.036;2022-10-01T09:43:17;8.10;;;7.50;;
57551;SDS011;43379;48.160;14.036;2022-10-01T09:45:47;8.73;;;8.13;;
57551;SDS011;43379;48.160;14.036;2022-10-01T09:50:49;8.20;;;7.20;;
57551;SDS011;43379;48.160;14.036;2022-10-01T09:53:22;7.87;;;7.20;;
57551;SDS011;43379;48.160;14.036;2022-10-01T09:55:57;7.67;;;7.07;;
57551;SDS011;43379;48.160;14.036;2022-10-01T09:58:32;7.47;;;6.97;;
57551;SDS011;43379;48.160;14.036;2022-10-01T10:01:00;8.47;;;7.77;;
57551;SDS011;43379;48.160;14.036;2022-10-01T10:03:27;6.80;;;6.20;;
57551;SDS011;43379;48.160;14.036;2022-10-01T10:05:54;6.90;;;6.40;;
57551;SDS011;43379;48.160;14.036;2022-10-01T10:08:30;6.83;;;6.33;;
57551;SDS011;43379;48.160;14.036;2022-10-01T10:11:05;6.13;;;5.53;;
57551;SDS011;43379;48.160;14.036;2022-10-01T10:13:41;6.07;;;5.47;;
57551;SDS011;43379;48.160;14.036;2022-10-01T10:16:25;5.23;;;4.83;;
57551;SDS011;43379;48.160;14.036;2022-10-01T10:19:00;5.67;;;5.27;;
57551;SDS011;43379;48.160;14.036;2022-10-01T10:21:47;5.40;;;5.00;;
57551;SDS011;43379;48.160;14.036;2022-10-01T10:24:26;5.77;;;5.37;;
57551;SDS011;43379;48.160;14.036;2022-10-01T10:26:57;4.70;;;4.20;;
57551;SDS011;43379;48.160;14.036;2022-10-01T10:29:28;5.77;;;5.33;;
57551;SDS011;43379;48.160;14.036;2022-10-01T10:32:02;5.10;;;4.70;;
57551;SDS011;43379;48.160;14.036;2022-10-01T10:34:41;5.50;;;5.10;;
57551;SDS011;43379;48.160;14.036;2022-10-01T10:37:12;5.57;;;5.10;;
57551;SDS011;43379;48.160;14.036;2022-10-01T10:39:41;5.30;;;4.90;;
57551;SDS011;43379;48.160;14.036;2022-10-01T10:42:14;5.30;;;4.80;;
57551;SDS011;43379;48.160;14.036;2022-10-01T10:44:40;4.90;;;4.60;;
57551;SDS011;43379;48.160;14.036;2022-10-01T10:47:10;5.33;;;4.93;;
57551;SDS011;43379;48.160;14.036;2022-10-01T10:49:45;4.37;;;4.00;;
57551;SDS011;43379;48.160;14.036;2022-10-01T10:54:54;3.57;;;3.13;;
57551;SDS011;43379;48.160;14.036;2022-10-01T10:57:32;4.87;;;3.40;;
57551;SDS011;43379;48.160;14.036;2022-10-01T11:05:39;4.10;;;3.70;;
57551;SDS011;43379;48.160;14.036;2022-10-01T11:08:07;4.13;;;3.83;;
57551;SDS011;43379;48.160;14.036;2022-10-01T11:10:45;4.00;;;3.60;;
57551;SDS011;43379;48.160;14.036;2022-10-01T11:13:35;4.10;;;3.80;;
57551;SDS011;43379;48.160;14.036;2022-10-01T11:19:13;3.23;;;3.03;;
57551;SDS011;43379;48.160;14.036;2022-10-01T11:25:12;3.10;;;2.73;;
57551;SDS011;43379;48.160;14.036;2022-10-01T11:30:55;4.10;;;3.70;;
57551;SDS011;43379;48.160;14.036;2022-10-01T11:33:35;4.07;;;3.77;;
57551;SDS011;43379;48.160;14.036;2022-10-01T11:39:04;5.00;;;3.63;;
57551;SDS011;43379;48.160;14.036;2022-10-01T11:41:42;3.10;;;2.90;;
57551;SDS011;43379;48.160;14.036;2022-10-01T11:47:25;3.80;;;3.50;;
57551;SDS011;43379;48.160;14.036;2022-10-01T11:50:27;4.17;;;3.87;;
57551;SDS011;43379;48.160;14.036;2022-10-01T11:58:12;5.03;;;3.40;;
57551;SDS011;43379;48.160;14.036;2022-10-01T12:01:39;3.40;;;3.10;;
57551;SDS011;43379;48.160;14.036;2022-10-01T12:04:10;3.23;;;2.93;;
57551;SDS011;43379;48.160;14.036;2022-10-01T12:06:53;2.40;;;2.10;;
57551;SDS011;43379;48.160;14.036;2022-10-01T12:12:47;3.10;;;2.20;;
57551;SDS011;43379;48.160;14.036;2022-10-01T12:15:25;2.00;;;1.80;;
57551;SDS011;43379;48.160;14.036;2022-10-01T12:18:06;2.00;;;1.90;;
57551;SDS011;43379;48.160;14.036;2022-10-01T12:20:56;3.33;;;1.90;;
57551;SDS011;43379;48.160;14.036;2022-10-01T12:23:30;2.37;;;2.17;;
57551;SDS011;43379;48.160;14.036;2022-10-01T12:31:48;3.73;;;2.77;;
57551;SDS011;43379;48.160;14.036;2022-10-01T12:37:15;5.60;;;2.90;;
57551;SDS011;43379;48.160;14.036;2022-10-01T12:45:50;2.40;;;2.20;;
57551;SDS011;43379;48.160;14.036;2022-10-01T12:59:41;2.53;;;2.33;;
57551;SDS011;43379;48.160;14.036;2022-10-01T13:07:36;3.27;;;2.73;;
57551;SDS011;43379;48.160;14.036;2022-10-01T13:15:30;2.60;;;2.40;;
57551;SDS011;43379;48.160;14.036;2022-10-01T13:18:08;3.87;;;3.57;;
57551;SDS011;43379;48.160;14.036;2022-10-01T13:20:49;3.53;;;3.23;;
57551;SDS011;43379;48.160;14.036;2022-10-01T13:29:17;4.20;;;3.90;;
57551;SDS011;43379;48.160;14.036;2022-10-01T13:31:56;4.77;;;4.43;;
57551;SDS011;43379;48.160;14.036;2022-10-01T13:36:51;4.93;;;4.17;;
57551;SDS011;43379;48.160;14.036;2022-10-01T13:39:21;4.93;;;4.53;;
57551;SDS011;43379;48.160;14.036;2022-10-01T13:41:56;4.23;;;3.93;;
57551;SDS011;43379;48.160;14.036;2022-10-01T13:44:27;4.30;;;4.00;;
57551;SDS011;43379;48.160;14.036;2022-10-01T13:47:02;4.83;;;4.43;;
57551;SDS011;43379;48.160;14.036;2022-10-01T13:49:31;5.17;;;4.77;;
57551;SDS011;43379;48.160;14.036;2022-10-01T13:51:58;4.67;;;4.37;;
57551;SDS011;43379;48.160;14.036;2022-10-01T13:54:37;6.13;;;5.40;;
57551;SDS011;43379;48.160;14.036;2022-10-01T13:57:43;5.23;;;4.73;;
57551;SDS011;43379;48.160;14.036;2022-10-01T14:02:41;5.27;;;4.10;;
57551;SDS011;43379;48.160;14.036;2022-10-01T14:07:54;9.73;;;5.00;;
57551;SDS011;43379;48.160;14.036;2022-10-01T14:10:37;5.53;;;5.03;;
57551;SDS011;43379;48.160;14.036;2022-10-01T14:13:27;4.83;;;4.43;;
57551;SDS011;43379;48.160;14.036;2022-10-01T14:16:13;5.13;;;4.73;;
57551;SDS011;43379;48.160;14.036;2022-10-01T14:18:41;4.77;;;4.37;;
57551;SDS011;43379;48.160;14.036;2022-10-01T14:37:59;4.90;;;4.50;;
57551;SDS011;43379;48.160;14.036;2022-10-01T14:40:36;5.10;;;4.60;;
57551;SDS011;43379;48.160;14.036;2022-10-01T14:43:20;4.90;;;4.50;;
57551;SDS011;43379;48.160;14.036;2022-10-01T14:45:51;5.20;;;4.67;;
57551;SDS011;43379;48.160;14.036;2022-10-01T14:48:24;5.37;;;4.63;;
57551;SDS011;43379;48.160;14.036;2022-10-01T14:50:52;5.93;;;5.40;;
57551;SDS011;43379;48.160;14.036;2022-10-01T14:53:24;5.40;;;4.93;;
57551;SDS011;43379;48.160;14.036;2022-10-01T14:55:52;5.70;;;5.20;;
57551;SDS011;43379;48.160;14.036;2022-10-01T14:58:30;6.93;;;6.43;;
57551;SDS011;43379;48.160;14.036;2022-10-01T15:00:56;8.60;;;7.23;;
57551;SDS011;43379;48.160;14.036;2022-10-01T15:03:23;6.53;;;5.83;;
57551;SDS011;43379;48.160;14.036;2022-10-01T15:05:49;5.57;;;5.17;;
57551;SDS011;43379;48.160;14.036;2022-10-01T15:08:19;5.60;;;5.20;;
57551;SDS011;43379;48.160;14.036;2022-10-01T15:10:51;6.27;;;5.67;;
57551;SDS011;43379;48.160;14.036;2022-10-01T15:13:25;5.53;;;5.03;;
57551;SDS011;43379;48.160;14.036;2022-10-01T15:15:53;6.40;;;5.80;;
57551;SDS011;43379;48.160;14.036;2022-10-01T15:18:20;6.30;;;5.80;;
57551;SDS011;43379;48.160;14.036;2022-10-01T15:20:51;6.60;;;6.10;;
57551;SDS011;43379;48.160;14.036;2022-10-01T15:23:22;8.80;;;8.03;;
57551;SDS011;43379;48.160;14.036;2022-10-01T15:25:49;8.67;;;7.97;;
57551;SDS011;43379;48.160;14.036;2022-10-01T15:28:23;8.90;;;8.20;;
57551;SDS011;43379;48.160;14.036;2022-10-01T15:30:56;10.43;;;8.80;;
57551;SDS011;43379;48.160;14.036;2022-10-01T15:33:27;9.40;;;8.63;;
57551;SDS011;43379;48.160;14.036;2022-10-01T15:35:58;12.33;;;11.20;;
57551;SDS011;43379;48.160;14.036;2022-10-01T15:38:27;12.60;;;11.50;;
57551;SDS011;43379;48.160;14.036;2022-10-01T15:40:55;17.53;;;16.23;;
57551;SDS011;43379;48.160;14.036;2022-10-01T15:43:34;15.67;;;14.47;;
57551;SDS011;43379;48.160;14.036;2022-10-01T15:46:07;9.93;;;9.23;;
57551;SDS011;43379;48.160;14.036;2022-10-01T15:48:44;9.80;;;9.00;;
57551;SDS011;43379;48.160;14.036;2022-10-01T15:51:14;9.53;;;8.73;;
57551;SDS011;43379;48.160;14.036;2022-10-01T15:53:49;8.10;;;7.50;;
57551;SDS011;43379;48.160;14.036;2022-10-01T15:56:16;8.40;;;7.70;;
57551;SDS011;43379;48.160;14.036;2022-10-01T15:58:47;8.60;;;7.90;;
57551;SDS011;43379;48.160;14.036;2022-10-01T16:01:19;8.17;;;7.47;;
57551;SDS011;43379;48.160;14.036;2022-10-01T16:04:05;7.73;;;7.13;;
57551;SDS011;43379;48.160;14.036;2022-10-01T16:06:42;7.90;;;7.13;;
57551;SDS011;43379;48.160;14.036;2022-10-01T16:12:03;7.53;;;6.83;;
57551;SDS011;43379;48.160;14.036;2022-10-01T16:15:00;9.60;;;8.80;;
57551;SDS011;43379;48.160;14.036;2022-10-01T16:17:29;9.73;;;8.93;;
57551;SDS011;43379;48.160;14.036;2022-10-01T16:20:00;8.80;;;8.00;;
57551;SDS011;43379;48.160;14.036;2022-10-01T16:22:30;10.03;;;8.60;;
57551;SDS011;43379;48.160;14.036;2022-10-01T16:25:02;10.03;;;7.80;;
57551;SDS011;43379;48.160;14.036;2022-10-01T16:31:05;10.60;;;9.20;;
57551;SDS011;43379;48.160;14.036;2022-10-01T16:33:30;9.00;;;8.30;;
57551;SDS011;43379;48.160;14.036;2022-10-01T16:36:06;9.40;;;8.60;;
57551;SDS011;43379;48.160;14.036;2022-10-01T16:38:33;8.23;;;7.53;;
57551;SDS011;43379;48.160;14.036;2022-10-01T16:40:59;8.77;;;8.07;;
57551;SDS011;43379;48.160;14.036;2022-10-01T16:43:26;7.67;;;6.97;;
57551;SDS011;43379;48.160;14.036;2022-10-01T16:45:52;7.90;;;7.20;;
57551;SDS011;43379;48.160;14.036;2022-10-01T16:48:19;8.70;;;8.10;;
57551;SDS011;43379;48.160;14.036;2022-10-01T16:50:46;9.10;;;8.30;;
57551;SDS011;43379;48.160;14.036;2022-10-01T16:53:13;7.63;;;7.03;;
57551;SDS011;43379;48.160;14.036;2022-10-01T16:55:40;7.17;;;6.60;;
57551;SDS011;43379;48.160;14.036;2022-10-01T16:58:07;7.93;;;7.33;;
57551;SDS011;43379;48.160;14.036;2022-10-01T17:00:32;7.93;;;7.23;;
57551;SDS011;43379;48.160;14.036;2022-10-01T17:03:01;8.03;;;5.97;;
57551;SDS011;43379;48.160;14.036;2022-10-01T17:05:32;5.73;;;5.23;;
57551;SDS011;43379;48.160;14.036;2022-10-01T17:08:00;5.90;;;5.40;;
57551;SDS011;43379;48.160;14.036;2022-10-01T17:10:28;6.37;;;5.87;;
57551;SDS011;43379;48.160;14.036;2022-10-01T17:12:59;5.93;;;5.50;;
57551;SDS011;43379;48.160;14.036;2022-10-01T17:15:26;4.10;;;3.73;;
57551;SDS011;43379;48.160;14.036;2022-10-01T17:17:52;4.47;;;2.50;;